sensor_id;sensor_type;location;lat;lon;timestamp;P1;durP1;ratioP1;P2;durP2;ratioP2
19492;SDS011;9887;54.366;10.958;2022-07-19T00:01:23;7.70;;;3.75;;
19492;SDS011;9887;54.366;10.958;2022-07-19T00:03:53;8.57;;;4.28;;
19492;SDS011;9887;54.366;10.958;2022-07-19T00:06:23;7.10;;;4.15;;
19492;SDS011;9887;54.366;10.958;2022-07-19T00:08:50;9.57;;;3.90;;
19492;SDS011;9887;54.366;10.958;2022-07-19T00:11:19;6.88;;;3.80;;
19492;SDS011;9887;54.366;10.958;2022-07-19T00:13:47;7.07;;;4.32;;
19492;SDS011;9887;54.366;10.958;2022-07-19T00:16:15;7.07;;;3.63;;
19492;SDS011;9887;54.366;10.958;2022-07-19T00:18:44;8.00;;;3.63;;
19492;SDS011;9887;54.366;10.958;2022-07-19T00:21:13;7.43;;;4.05;;
19492;SDS011;9887;54.366;10.958;2022-07-19T00:23:41;6.35;;;3.72;;
19492;SDS011;9887;54.366;10.958;2022-07-19T00:26:10;7.63;;;3.75;;
19492;SDS011;9887;54.366;10.958;2022-07-19T00:28:38;7.15;;;4.13;;
19492;SDS011;9887;54.366;10.958;2022-07-19T00:31:05;10.20;;;3.60;;
19492;SDS011;9887;54.366;10.958;2022-07-19T00:33:34;7.13;;;3.60;;
19492;SDS011;9887;54.366;10.958;2022-07-19T00:36:02;7.78;;;3.95;;
19492;SDS011;9887;54.366;10.958;2022-07-19T00:38:32;7.53;;;4.10;;
19492;SDS011;9887;54.366;10.958;2022-07-19T00:41:00;8.05;;;3.83;;
19492;SDS011;9887;54.366;10.958;2022-07-19T00:43:29;10.00;;;4.10;;
19492;SDS011;9887;54.366;10.958;2022-07-19T00:45:57;6.80;;;3.90;;
19492;SDS011;9887;54.366;10.958;2022-07-19T00:48:25;10.00;;;3.67;;
19492;SDS011;9887;54.366;10.958;2022-07-19T00:50:53;6.85;;;3.55;;
19492;SDS011;9887;54.366;10.958;2022-07-19T00:53:21;7.40;;;4.15;;
19492;SDS011;9887;54.366;10.958;2022-07-19T00:55:51;8.40;;;3.97;;
19492;SDS011;9887;54.366;10.958;2022-07-19T00:58:21;9.50;;;3.83;;
19492;SDS011;9887;54.366;10.958;2022-07-19T01:00:50;8.15;;;4.07;;
19492;SDS011;9887;54.366;10.958;2022-07-19T01:03:18;7.60;;;3.47;;
19492;SDS011;9887;54.366;10.958;2022-07-19T01:05:47;9.23;;;4.30;;
19492;SDS011;9887;54.366;10.958;2022-07-19T01:08:15;12.20;;;4.00;;
19492;SDS011;9887;54.366;10.958;2022-07-19T01:10:43;7.53;;;3.83;;
19492;SDS011;9887;54.366;10.958;2022-07-19T01:13:13;8.82;;;3.63;;
19492;SDS011;9887;54.366;10.958;2022-07-19T01:15:42;9.82;;;4.18;;
19492;SDS011;9887;54.366;10.958;2022-07-19T01:18:10;9.30;;;4.85;;
19492;SDS011;9887;54.366;10.958;2022-07-19T01:20:38;10.93;;;4.90;;
19492;SDS011;9887;54.366;10.958;2022-07-19T01:23:07;8.93;;;4.95;;
19492;SDS011;9887;54.366;10.958;2022-07-19T01:25:36;8.55;;;4.30;;
19492;SDS011;9887;54.366;10.958;2022-07-19T01:28:05;8.23;;;4.60;;
19492;SDS011;9887;54.366;10.958;2022-07-19T01:30:34;9.93;;;4.80;;
19492;SDS011;9887;54.366;10.958;2022-07-19T01:33:02;10.50;;;5.30;;
19492;SDS011;9887;54.366;10.958;2022-07-19T01:35:31;13.45;;;5.85;;
19492;SDS011;9887;54.366;10.958;2022-07-19T01:37:59;10.35;;;6.25;;
19492;SDS011;9887;54.366;10.958;2022-07-19T01:40:28;10.57;;;6.05;;
19492;SDS011;9887;54.366;10.958;2022-07-19T01:42:56;11.60;;;5.90;;
19492;SDS011;9887;54.366;10.958;2022-07-19T01:45:24;13.45;;;6.13;;
19492;SDS011;9887;54.366;10.958;2022-07-19T01:47:52;10.23;;;4.93;;
19492;SDS011;9887;54.366;10.958;2022-07-19T01:50:20;11.55;;;6.15;;
19492;SDS011;9887;54.366;10.958;2022-07-19T01:52:48;12.20;;;6.25;;
19492;SDS011;9887;54.366;10.958;2022-07-19T01:55:17;10.52;;;5.88;;
19492;SDS011;9887;54.366;10.958;2022-07-19T01:57:47;11.70;;;5.97;;
19492;SDS011;9887;54.366;10.958;2022-07-19T02:00:17;10.98;;;6.05;;
19492;SDS011;9887;54.366;10.958;2022-07-19T02:02:45;14.32;;;6.60;;
19492;SDS011;9887;54.366;10.958;2022-07-19T02:05:13;10.35;;;6.03;;
19492;SDS011;9887;54.366;10.958;2022-07-19T02:07:45;12.40;;;6.18;;
19492;SDS011;9887;54.366;10.958;2022-07-19T02:10:16;11.88;;;6.45;;
19492;SDS011;9887;54.366;10.958;2022-07-19T02:12:45;12.63;;;6.60;;
19492;SDS011;9887;54.366;10.958;2022-07-19T02:15:14;12.05;;;5.97;;
19492;SDS011;9887;54.366;10.958;2022-07-19T02:17:42;15.90;;;6.32;;
19492;SDS011;9887;54.366;10.958;2022-07-19T02:20:10;13.20;;;6.90;;
19492;SDS011;9887;54.366;10.958;2022-07-19T02:22:39;10.27;;;5.90;;
19492;SDS011;9887;54.366;10.958;2022-07-19T02:25:07;13.13;;;6.18;;
19492;SDS011;9887;54.366;10.958;2022-07-19T02:27:36;12.07;;;6.30;;
19492;SDS011;9887;54.366;10.958;2022-07-19T02:30:04;13.25;;;6.75;;
19492;SDS011;9887;54.366;10.958;2022-07-19T02:32:35;11.40;;;6.10;;
19492;SDS011;9887;54.366;10.958;2022-07-19T02:35:03;10.15;;;5.80;;
19492;SDS011;9887;54.366;10.958;2022-07-19T02:37:32;11.27;;;6.00;;
19492;SDS011;9887;54.366;10.958;2022-07-19T02:40:00;11.90;;;5.95;;
19492;SDS011;9887;54.366;10.958;2022-07-19T02:42:28;12.30;;;5.97;;
19492;SDS011;9887;54.366;10.958;2022-07-19T02:44:56;9.90;;;5.75;;
19492;SDS011;9887;54.366;10.958;2022-07-19T02:47:24;9.40;;;5.90;;
19492;SDS011;9887;54.366;10.958;2022-07-19T02:49:53;10.77;;;5.63;;
19492;SDS011;9887;54.366;10.958;2022-07-19T02:52:21;11.77;;;5.43;;
19492;SDS011;9887;54.366;10.958;2022-07-19T02:54:49;11.43;;;5.50;;
19492;SDS011;9887;54.366;10.958;2022-07-19T02:57:17;13.80;;;6.30;;
19492;SDS011;9887;54.366;10.958;2022-07-19T02:59:45;10.40;;;5.50;;
19492;SDS011;9887;54.366;10.958;2022-07-19T03:02:13;10.60;;;5.90;;
19492;SDS011;9887;54.366;10.958;2022-07-19T03:04:41;9.75;;;5.80;;
19492;SDS011;9887;54.366;10.958;2022-07-19T03:07:11;12.35;;;6.00;;
19492;SDS011;9887;54.366;10.958;2022-07-19T03:09:39;10.73;;;5.30;;
19492;SDS011;9887;54.366;10.958;2022-07-19T03:12:07;10.10;;;5.80;;
19492;SDS011;9887;54.366;10.958;2022-07-19T03:14:35;11.95;;;5.68;;
19492;SDS011;9887;54.366;10.958;2022-07-19T03:17:03;10.30;;;6.07;;
19492;SDS011;9887;54.366;10.958;2022-07-19T03:19:31;13.77;;;5.63;;
19492;SDS011;9887;54.366;10.958;2022-07-19T03:21:59;8.52;;;5.07;;
19492;SDS011;9887;54.366;10.958;2022-07-19T03:24:28;10.50;;;4.90;;
19492;SDS011;9887;54.366;10.958;2022-07-19T03:26:58;8.13;;;4.75;;
19492;SDS011;9887;54.366;10.958;2022-07-19T03:29:26;9.15;;;5.38;;
19492;SDS011;9887;54.366;10.958;2022-07-19T03:31:55;7.85;;;5.00;;
19492;SDS011;9887;54.366;10.958;2022-07-19T03:34:24;10.30;;;5.43;;
19492;SDS011;9887;54.366;10.958;2022-07-19T03:36:52;10.00;;;5.47;;
19492;SDS011;9887;54.366;10.958;2022-07-19T03:39:20;10.35;;;5.68;;
19492;SDS011;9887;54.366;10.958;2022-07-19T03:41:49;10.85;;;5.30;;
19492;SDS011;9887;54.366;10.958;2022-07-19T03:44:25;9.60;;;4.63;;
19492;SDS011;9887;54.366;10.958;2022-07-19T03:46:53;10.82;;;5.70;;
19492;SDS011;9887;54.366;10.958;2022-07-19T03:49:21;9.32;;;5.03;;
19492;SDS011;9887;54.366;10.958;2022-07-19T03:51:49;9.80;;;4.50;;
19492;SDS011;9887;54.366;10.958;2022-07-19T03:54:17;9.82;;;5.30;;
19492;SDS011;9887;54.366;10.958;2022-07-19T03:56:45;8.70;;;4.72;;
19492;SDS011;9887;54.366;10.958;2022-07-19T03:59:15;10.48;;;4.68;;
19492;SDS011;9887;54.366;10.958;2022-07-19T04:01:43;9.65;;;4.60;;
19492;SDS011;9887;54.366;10.958;2022-07-19T04:04:11;9.57;;;4.80;;
19492;SDS011;9887;54.366;10.958;2022-07-19T04:06:39;12.35;;;5.05;;
19492;SDS011;9887;54.366;10.958;2022-07-19T04:09:07;10.32;;;5.20;;
19492;SDS011;9887;54.366;10.958;2022-07-19T04:11:35;11.18;;;6.35;;
19492;SDS011;9887;54.366;10.958;2022-07-19T04:14:03;10.02;;;5.18;;
19492;SDS011;9887;54.366;10.958;2022-07-19T04:16:33;15.88;;;6.55;;
19492;SDS011;9887;54.366;10.958;2022-07-19T04:19:01;8.93;;;4.60;;
19492;SDS011;9887;54.366;10.958;2022-07-19T04:21:29;11.45;;;4.97;;
19492;SDS011;9887;54.366;10.958;2022-07-19T04:23:57;8.95;;;4.90;;
19492;SDS011;9887;54.366;10.958;2022-07-19T04:26:27;12.30;;;5.57;;
19492;SDS011;9887;54.366;10.958;2022-07-19T04:28:55;10.05;;;5.57;;
19492;SDS011;9887;54.366;10.958;2022-07-19T04:31:23;9.35;;;5.30;;
19492;SDS011;9887;54.366;10.958;2022-07-19T04:33:53;11.35;;;5.40;;
19492;SDS011;9887;54.366;10.958;2022-07-19T04:36:21;11.50;;;5.18;;
19492;SDS011;9887;54.366;10.958;2022-07-19T04:38:49;9.30;;;4.78;;
19492;SDS011;9887;54.366;10.958;2022-07-19T04:41:17;14.82;;;4.85;;
19492;SDS011;9887;54.366;10.958;2022-07-19T04:43:45;9.18;;;5.40;;
19492;SDS011;9887;54.366;10.958;2022-07-19T04:46:13;11.10;;;4.68;;
19492;SDS011;9887;54.366;10.958;2022-07-19T04:48:41;8.95;;;4.78;;
19492;SDS011;9887;54.366;10.958;2022-07-19T04:51:10;8.38;;;4.45;;
19492;SDS011;9887;54.366;10.958;2022-07-19T04:53:38;12.50;;;5.20;;
19492;SDS011;9887;54.366;10.958;2022-07-19T04:56:06;11.75;;;4.97;;
19492;SDS011;9887;54.366;10.958;2022-07-19T04:58:34;9.48;;;5.40;;
19492;SDS011;9887;54.366;10.958;2022-07-19T05:01:02;9.00;;;5.03;;
19492;SDS011;9887;54.366;10.958;2022-07-19T05:03:30;11.70;;;5.20;;
19492;SDS011;9887;54.366;10.958;2022-07-19T05:05:59;8.48;;;5.00;;
19492;SDS011;9887;54.366;10.958;2022-07-19T05:08:28;11.23;;;4.70;;
19492;SDS011;9887;54.366;10.958;2022-07-19T05:10:56;10.30;;;5.40;;
19492;SDS011;9887;54.366;10.958;2022-07-19T05:13:24;16.02;;;5.63;;
19492;SDS011;9887;54.366;10.958;2022-07-19T05:15:52;8.55;;;4.97;;
19492;SDS011;9887;54.366;10.958;2022-07-19T05:18:20;9.00;;;5.03;;
19492;SDS011;9887;54.366;10.958;2022-07-19T05:20:48;11.23;;;4.72;;
19492;SDS011;9887;54.366;10.958;2022-07-19T05:23:16;9.88;;;5.32;;
19492;SDS011;9887;54.366;10.958;2022-07-19T05:25:46;8.20;;;4.93;;
19492;SDS011;9887;54.366;10.958;2022-07-19T05:28:13;9.90;;;5.53;;
19492;SDS011;9887;54.366;10.958;2022-07-19T05:30:41;15.07;;;5.32;;
19492;SDS011;9887;54.366;10.958;2022-07-19T05:33:10;9.00;;;4.50;;
19492;SDS011;9887;54.366;10.958;2022-07-19T05:35:38;10.15;;;5.00;;
19492;SDS011;9887;54.366;10.958;2022-07-19T05:38:06;9.23;;;4.03;;
19492;SDS011;9887;54.366;10.958;2022-07-19T05:40:35;11.80;;;4.32;;
19492;SDS011;9887;54.366;10.958;2022-07-19T05:43:04;11.75;;;4.60;;
19492;SDS011;9887;54.366;10.958;2022-07-19T05:45:32;9.13;;;4.20;;
19492;SDS011;9887;54.366;10.958;2022-07-19T05:48:00;9.35;;;3.90;;
19492;SDS011;9887;54.366;10.958;2022-07-19T05:50:28;10.85;;;4.50;;
19492;SDS011;9887;54.366;10.958;2022-07-19T05:52:56;7.25;;;4.50;;
19492;SDS011;9887;54.366;10.958;2022-07-19T05:55:24;11.95;;;4.47;;
19492;SDS011;9887;54.366;10.958;2022-07-19T05:57:52;7.95;;;3.60;;
19492;SDS011;9887;54.366;10.958;2022-07-19T06:00:21;9.13;;;3.40;;
19492;SDS011;9887;54.366;10.958;2022-07-19T06:02:50;8.13;;;3.45;;
19492;SDS011;9887;54.366;10.958;2022-07-19T06:05:18;7.82;;;3.83;;
19492;SDS011;9887;54.366;10.958;2022-07-19T06:07:45;6.57;;;3.10;;
19492;SDS011;9887;54.366;10.958;2022-07-19T06:10:13;7.55;;;3.95;;
19492;SDS011;9887;54.366;10.958;2022-07-19T06:12:41;9.85;;;3.60;;
19492;SDS011;9887;54.366;10.958;2022-07-19T06:15:10;6.78;;;3.47;;
19492;SDS011;9887;54.366;10.958;2022-07-19T06:17:39;8.38;;;3.55;;
19492;SDS011;9887;54.366;10.958;2022-07-19T06:20:08;8.93;;;3.20;;
19492;SDS011;9887;54.366;10.958;2022-07-19T06:22:37;7.82;;;3.30;;
19492;SDS011;9887;54.366;10.958;2022-07-19T06:25:05;7.22;;;3.22;;
19492;SDS011;9887;54.366;10.958;2022-07-19T06:27:34;6.97;;;3.60;;
19492;SDS011;9887;54.366;10.958;2022-07-19T06:30:02;8.50;;;3.75;;
19492;SDS011;9887;54.366;10.958;2022-07-19T06:32:30;7.88;;;3.78;;
19492;SDS011;9887;54.366;10.958;2022-07-19T06:34:59;7.63;;;3.75;;
19492;SDS011;9887;54.366;10.958;2022-07-19T06:37:27;12.18;;;4.40;;
19492;SDS011;9887;54.366;10.958;2022-07-19T06:39:56;10.25;;;3.83;;
19492;SDS011;9887;54.366;10.958;2022-07-19T06:42:24;10.88;;;4.65;;
19492;SDS011;9887;54.366;10.958;2022-07-19T06:44:52;10.75;;;4.45;;
19492;SDS011;9887;54.366;10.958;2022-07-19T06:47:20;7.25;;;4.05;;
19492;SDS011;9887;54.366;10.958;2022-07-19T06:49:48;9.52;;;3.83;;
19492;SDS011;9887;54.366;10.958;2022-07-19T06:52:17;7.82;;;4.10;;
19492;SDS011;9887;54.366;10.958;2022-07-19T06:54:45;8.95;;;4.28;;
19492;SDS011;9887;54.366;10.958;2022-07-19T06:57:13;10.18;;;3.85;;
19492;SDS011;9887;54.366;10.958;2022-07-19T06:59:41;11.25;;;3.63;;
19492;SDS011;9887;54.366;10.958;2022-07-19T07:02:09;7.68;;;3.95;;
19492;SDS011;9887;54.366;10.958;2022-07-19T07:04:37;10.65;;;3.78;;
19492;SDS011;9887;54.366;10.958;2022-07-19T07:07:12;7.75;;;4.13;;
19492;SDS011;9887;54.366;10.958;2022-07-19T07:09:42;10.40;;;3.90;;
19492;SDS011;9887;54.366;10.958;2022-07-19T07:12:09;13.27;;;3.80;;
19492;SDS011;9887;54.366;10.958;2022-07-19T07:14:37;8.45;;;3.83;;
19492;SDS011;9887;54.366;10.958;2022-07-19T07:17:05;12.80;;;4.55;;
19492;SDS011;9887;54.366;10.958;2022-07-19T07:19:34;9.80;;;4.03;;
19492;SDS011;9887;54.366;10.958;2022-07-19T07:22:02;14.63;;;4.43;;
19492;SDS011;9887;54.366;10.958;2022-07-19T07:24:30;14.65;;;4.45;;
19492;SDS011;9887;54.366;10.958;2022-07-19T07:27:01;7.78;;;4.10;;
19492;SDS011;9887;54.366;10.958;2022-07-19T07:29:29;10.57;;;3.90;;
19492;SDS011;9887;54.366;10.958;2022-07-19T07:31:57;9.57;;;3.90;;
19492;SDS011;9887;54.366;10.958;2022-07-19T07:34:25;8.48;;;3.83;;
19492;SDS011;9887;54.366;10.958;2022-07-19T07:37:01;7.78;;;3.53;;
19492;SDS011;9887;54.366;10.958;2022-07-19T07:39:29;8.85;;;4.30;;
19492;SDS011;9887;54.366;10.958;2022-07-19T07:41:57;7.82;;;3.65;;
19492;SDS011;9887;54.366;10.958;2022-07-19T07:44:39;8.68;;;3.97;;
19492;SDS011;9887;54.366;10.958;2022-07-19T07:47:07;8.48;;;3.20;;
19492;SDS011;9887;54.366;10.958;2022-07-19T07:49:35;7.15;;;3.63;;
19492;SDS011;9887;54.366;10.958;2022-07-19T07:52:04;8.13;;;4.07;;
19492;SDS011;9887;54.366;10.958;2022-07-19T07:54:33;10.35;;;4.07;;
19492;SDS011;9887;54.366;10.958;2022-07-19T07:57:09;6.72;;;4.05;;
19492;SDS011;9887;54.366;10.958;2022-07-19T07:59:39;7.22;;;4.10;;
19492;SDS011;9887;54.366;10.958;2022-07-19T08:02:06;7.25;;;3.70;;
19492;SDS011;9887;54.366;10.958;2022-07-19T08:04:35;6.47;;;3.88;;
19492;SDS011;9887;54.366;10.958;2022-07-19T08:07:03;8.38;;;3.83;;
19492;SDS011;9887;54.366;10.958;2022-07-19T08:09:31;9.75;;;3.97;;
19492;SDS011;9887;54.366;10.958;2022-07-19T08:11:59;9.65;;;3.38;;
19492;SDS011;9887;54.366;10.958;2022-07-19T08:14:27;7.30;;;3.35;;
19492;SDS011;9887;54.366;10.958;2022-07-19T08:16:56;6.45;;;4.15;;
19492;SDS011;9887;54.366;10.958;2022-07-19T08:19:25;8.32;;;3.95;;
19492;SDS011;9887;54.366;10.958;2022-07-19T08:21:52;9.52;;;3.63;;
19492;SDS011;9887;54.366;10.958;2022-07-19T08:24:20;6.20;;;3.55;;
19492;SDS011;9887;54.366;10.958;2022-07-19T08:26:49;6.97;;;3.97;;
19492;SDS011;9887;54.366;10.958;2022-07-19T08:29:17;7.38;;;4.10;;
19492;SDS011;9887;54.366;10.958;2022-07-19T08:31:44;9.82;;;4.38;;
19492;SDS011;9887;54.366;10.958;2022-07-19T08:34:14;10.10;;;4.30;;
19492;SDS011;9887;54.366;10.958;2022-07-19T08:36:42;7.10;;;3.80;;
19492;SDS011;9887;54.366;10.958;2022-07-19T08:39:10;6.70;;;3.75;;
19492;SDS011;9887;54.366;10.958;2022-07-19T08:41:38;8.63;;;4.38;;
19492;SDS011;9887;54.366;10.958;2022-07-19T08:44:06;8.20;;;3.38;;
19492;SDS011;9887;54.366;10.958;2022-07-19T08:46:35;7.38;;;3.70;;
19492;SDS011;9887;54.366;10.958;2022-07-19T08:49:03;7.13;;;3.40;;
19492;SDS011;9887;54.366;10.958;2022-07-19T08:51:33;8.35;;;4.13;;
19492;SDS011;9887;54.366;10.958;2022-07-19T08:54:03;6.88;;;3.60;;
19492;SDS011;9887;54.366;10.958;2022-07-19T08:56:31;7.43;;;4.18;;
19492;SDS011;9887;54.366;10.958;2022-07-19T08:59:16;7.47;;;3.70;;
19492;SDS011;9887;54.366;10.958;2022-07-19T09:01:44;8.30;;;4.20;;
19492;SDS011;9887;54.366;10.958;2022-07-19T09:04:13;7.32;;;3.95;;
19492;SDS011;9887;54.366;10.958;2022-07-19T09:06:44;6.25;;;3.38;;
19492;SDS011;9887;54.366;10.958;2022-07-19T09:09:15;7.57;;;3.60;;
19492;SDS011;9887;54.366;10.958;2022-07-19T09:11:44;8.43;;;3.80;;
19492;SDS011;9887;54.366;10.958;2022-07-19T09:14:18;9.57;;;3.72;;
19492;SDS011;9887;54.366;10.958;2022-07-19T09:16:49;8.15;;;3.90;;
19492;SDS011;9887;54.366;10.958;2022-07-19T09:19:22;7.70;;;3.78;;
19492;SDS011;9887;54.366;10.958;2022-07-19T09:21:56;6.80;;;3.55;;
19492;SDS011;9887;54.366;10.958;2022-07-19T09:24:26;5.80;;;3.33;;
19492;SDS011;9887;54.366;10.958;2022-07-19T09:27:02;10.40;;;3.72;;
19492;SDS011;9887;54.366;10.958;2022-07-19T09:29:32;7.55;;;3.55;;
19492;SDS011;9887;54.366;10.958;2022-07-19T09:32:03;6.55;;;3.53;;
19492;SDS011;9887;54.366;10.958;2022-07-19T09:34:34;12.48;;;3.55;;
19492;SDS011;9887;54.366;10.958;2022-07-19T09:37:17;6.82;;;3.55;;
19492;SDS011;9887;54.366;10.958;2022-07-19T09:39:49;9.35;;;3.33;;
19492;SDS011;9887;54.366;10.958;2022-07-19T09:42:19;7.03;;;3.50;;
19492;SDS011;9887;54.366;10.958;2022-07-19T09:44:56;5.75;;;3.67;;
19492;SDS011;9887;54.366;10.958;2022-07-19T09:47:29;6.05;;;3.65;;
19492;SDS011;9887;54.366;10.958;2022-07-19T09:49:59;8.60;;;3.90;;
19492;SDS011;9887;54.366;10.958;2022-07-19T09:52:29;14.02;;;4.32;;
19492;SDS011;9887;54.366;10.958;2022-07-19T09:55:06;7.72;;;3.50;;
19492;SDS011;9887;54.366;10.958;2022-07-19T09:57:37;7.55;;;3.65;;
19492;SDS011;9887;54.366;10.958;2022-07-19T10:00:07;9.80;;;3.42;;
19492;SDS011;9887;54.366;10.958;2022-07-19T10:02:38;7.18;;;3.97;;
19492;SDS011;9887;54.366;10.958;2022-07-19T10:05:07;9.15;;;4.20;;
19492;SDS011;9887;54.366;10.958;2022-07-19T10:07:38;7.65;;;4.55;;
19492;SDS011;9887;54.366;10.958;2022-07-19T10:10:08;7.47;;;3.85;;
19492;SDS011;9887;54.366;10.958;2022-07-19T10:12:38;7.53;;;3.92;;
19492;SDS011;9887;54.366;10.958;2022-07-19T10:15:07;9.05;;;4.13;;
19492;SDS011;9887;54.366;10.958;2022-07-19T10:17:37;8.15;;;3.50;;
19492;SDS011;9887;54.366;10.958;2022-07-19T10:20:07;6.40;;;3.88;;
19492;SDS011;9887;54.366;10.958;2022-07-19T10:22:39;6.88;;;4.25;;
19492;SDS011;9887;54.366;10.958;2022-07-19T10:25:11;7.88;;;4.13;;
19492;SDS011;9887;54.366;10.958;2022-07-19T10:27:40;9.43;;;4.50;;
19492;SDS011;9887;54.366;10.958;2022-07-19T10:30:18;7.05;;;4.15;;
19492;SDS011;9887;54.366;10.958;2022-07-19T10:32:52;9.05;;;5.00;;
19492;SDS011;9887;54.366;10.958;2022-07-19T10:35:21;6.43;;;4.25;;
19492;SDS011;9887;54.366;10.958;2022-07-19T10:37:53;8.98;;;4.07;;
19492;SDS011;9887;54.366;10.958;2022-07-19T10:40:37;11.25;;;4.53;;
19492;SDS011;9887;54.366;10.958;2022-07-19T10:43:08;7.43;;;4.35;;
19492;SDS011;9887;54.366;10.958;2022-07-19T10:45:37;8.32;;;4.50;;
19492;SDS011;9887;54.366;10.958;2022-07-19T10:48:07;11.95;;;4.82;;
19492;SDS011;9887;54.366;10.958;2022-07-19T10:50:42;7.05;;;4.47;;
19492;SDS011;9887;54.366;10.958;2022-07-19T10:56:32;10.18;;;4.28;;
19492;SDS011;9887;54.366;10.958;2022-07-19T10:59:13;10.45;;;4.63;;
19492;SDS011;9887;54.366;10.958;2022-07-19T11:01:52;8.35;;;4.90;;
19492;SDS011;9887;54.366;10.958;2022-07-19T11:04:30;7.13;;;4.85;;
19492;SDS011;9887;54.366;10.958;2022-07-19T11:07:09;7.90;;;4.72;;
19492;SDS011;9887;54.366;10.958;2022-07-19T11:09:39;11.10;;;4.97;;
19492;SDS011;9887;54.366;10.958;2022-07-19T11:12:25;8.10;;;4.97;;
19492;SDS011;9887;54.366;10.958;2022-07-19T11:14:55;9.93;;;5.20;;
19492;SDS011;9887;54.366;10.958;2022-07-19T11:17:39;8.35;;;4.72;;
19492;SDS011;9887;54.366;10.958;2022-07-19T11:20:17;8.07;;;4.88;;
19492;SDS011;9887;54.366;10.958;2022-07-19T11:22:46;7.82;;;4.40;;
19492;SDS011;9887;54.366;10.958;2022-07-19T11:25:23;5.93;;;4.18;;
19492;SDS011;9887;54.366;10.958;2022-07-19T11:27:54;7.78;;;5.05;;
19492;SDS011;9887;54.366;10.958;2022-07-19T11:30:22;7.05;;;4.13;;
19492;SDS011;9887;54.366;10.958;2022-07-19T11:32:52;7.70;;;4.30;;
19492;SDS011;9887;54.366;10.958;2022-07-19T11:35:21;9.82;;;5.18;;
19492;SDS011;9887;54.366;10.958;2022-07-19T11:37:53;8.88;;;4.90;;
19492;SDS011;9887;54.366;10.958;2022-07-19T11:40:22;7.30;;;4.78;;
19492;SDS011;9887;54.366;10.958;2022-07-19T11:42:52;8.60;;;4.93;;
19492;SDS011;9887;54.366;10.958;2022-07-19T11:45:40;9.20;;;4.97;;
19492;SDS011;9887;54.366;10.958;2022-07-19T11:48:11;7.50;;;4.40;;
19492;SDS011;9887;54.366;10.958;2022-07-19T11:50:40;8.88;;;5.03;;
19492;SDS011;9887;54.366;10.958;2022-07-19T11:53:18;7.32;;;4.30;;
19492;SDS011;9887;54.366;10.958;2022-07-19T11:55:47;8.82;;;4.43;;
19492;SDS011;9887;54.366;10.958;2022-07-19T11:58:17;6.80;;;4.13;;
19492;SDS011;9887;54.366;10.958;2022-07-19T12:00:45;7.07;;;4.65;;
19492;SDS011;9887;54.366;10.958;2022-07-19T12:03:13;8.50;;;4.50;;
19492;SDS011;9887;54.366;10.958;2022-07-19T12:05:53;8.40;;;4.80;;
19492;SDS011;9887;54.366;10.958;2022-07-19T12:08:31;10.70;;;4.97;;
19492;SDS011;9887;54.366;10.958;2022-07-19T12:11:00;7.22;;;4.43;;
19492;SDS011;9887;54.366;10.958;2022-07-19T12:13:31;8.07;;;4.57;;
19492;SDS011;9887;54.366;10.958;2022-07-19T12:16:00;6.95;;;4.30;;
19492;SDS011;9887;54.366;10.958;2022-07-19T12:18:41;7.97;;;4.57;;
19492;SDS011;9887;54.366;10.958;2022-07-19T12:21:18;8.55;;;4.35;;
19492;SDS011;9887;54.366;10.958;2022-07-19T12:26:42;10.88;;;5.25;;
19492;SDS011;9887;54.366;10.958;2022-07-19T12:29:22;8.95;;;4.70;;
19492;SDS011;9887;54.366;10.958;2022-07-19T12:31:53;7.70;;;4.55;;
19492;SDS011;9887;54.366;10.958;2022-07-19T12:34:23;8.77;;;5.10;;
19492;SDS011;9887;54.366;10.958;2022-07-19T12:36:51;7.13;;;4.40;;
19492;SDS011;9887;54.366;10.958;2022-07-19T12:39:21;7.10;;;4.60;;
19492;SDS011;9887;54.366;10.958;2022-07-19T12:41:54;9.23;;;5.00;;
19492;SDS011;9887;54.366;10.958;2022-07-19T12:44:25;11.65;;;5.22;;
19492;SDS011;9887;54.366;10.958;2022-07-19T12:46:53;8.50;;;4.82;;
19492;SDS011;9887;54.366;10.958;2022-07-19T12:49:43;13.48;;;5.28;;
19492;SDS011;9887;54.366;10.958;2022-07-19T12:52:12;9.45;;;5.00;;
19492;SDS011;9887;54.366;10.958;2022-07-19T12:54:40;6.25;;;4.40;;
19492;SDS011;9887;54.366;10.958;2022-07-19T12:57:08;8.95;;;5.18;;
19492;SDS011;9887;54.366;10.958;2022-07-19T12:59:37;10.68;;;4.78;;
19492;SDS011;9887;54.366;10.958;2022-07-19T13:02:09;7.95;;;4.80;;
19492;SDS011;9887;54.366;10.958;2022-07-19T13:04:39;7.63;;;4.10;;
19492;SDS011;9887;54.366;10.958;2022-07-19T13:07:08;10.05;;;4.53;;
19492;SDS011;9887;54.366;10.958;2022-07-19T13:09:38;11.40;;;4.82;;
19492;SDS011;9887;54.366;10.958;2022-07-19T13:12:07;7.60;;;5.32;;
19492;SDS011;9887;54.366;10.958;2022-07-19T13:14:37;8.23;;;5.22;;
19492;SDS011;9887;54.366;10.958;2022-07-19T13:17:06;7.53;;;4.97;;
19492;SDS011;9887;54.366;10.958;2022-07-19T13:19:37;8.02;;;5.45;;
19492;SDS011;9887;54.366;10.958;2022-07-19T13:22:05;7.28;;;4.82;;
19492;SDS011;9887;54.366;10.958;2022-07-19T13:24:34;7.50;;;4.75;;
19492;SDS011;9887;54.366;10.958;2022-07-19T13:27:22;7.95;;;4.75;;
19492;SDS011;9887;54.366;10.958;2022-07-19T13:29:51;9.10;;;5.15;;
19492;SDS011;9887;54.366;10.958;2022-07-19T13:32:19;8.60;;;4.70;;
19492;SDS011;9887;54.366;10.958;2022-07-19T13:34:48;7.40;;;4.45;;
19492;SDS011;9887;54.366;10.958;2022-07-19T13:37:16;7.65;;;4.72;;
19492;SDS011;9887;54.366;10.958;2022-07-19T13:39:44;8.13;;;4.47;;
19492;SDS011;9887;54.366;10.958;2022-07-19T13:42:13;8.05;;;4.82;;
19492;SDS011;9887;54.366;10.958;2022-07-19T13:44:41;8.77;;;4.80;;
19492;SDS011;9887;54.366;10.958;2022-07-19T13:47:10;10.35;;;5.28;;
19492;SDS011;9887;54.366;10.958;2022-07-19T13:49:38;7.22;;;4.68;;
19492;SDS011;9887;54.366;10.958;2022-07-19T13:52:06;8.32;;;5.13;;
19492;SDS011;9887;54.366;10.958;2022-07-19T13:54:35;6.75;;;4.60;;
19492;SDS011;9887;54.366;10.958;2022-07-19T13:57:03;9.82;;;5.03;;
19492;SDS011;9887;54.366;10.958;2022-07-19T13:59:31;9.82;;;5.65;;
19492;SDS011;9887;54.366;10.958;2022-07-19T14:02:00;7.32;;;4.65;;
19492;SDS011;9887;54.366;10.958;2022-07-19T14:04:29;8.77;;;4.93;;
19492;SDS011;9887;54.366;10.958;2022-07-19T14:06:57;8.82;;;5.00;;
19492;SDS011;9887;54.366;10.958;2022-07-19T14:09:25;7.18;;;4.80;;
19492;SDS011;9887;54.366;10.958;2022-07-19T14:11:53;7.40;;;5.00;;
19492;SDS011;9887;54.366;10.958;2022-07-19T14:14:21;6.55;;;4.35;;
19492;SDS011;9887;54.366;10.958;2022-07-19T14:16:49;9.02;;;5.10;;
19492;SDS011;9887;54.366;10.958;2022-07-19T14:19:18;6.85;;;4.90;;
19492;SDS011;9887;54.366;10.958;2022-07-19T14:21:49;7.53;;;4.75;;
19492;SDS011;9887;54.366;10.958;2022-07-19T14:24:17;7.13;;;4.90;;
19492;SDS011;9887;54.366;10.958;2022-07-19T14:26:45;7.93;;;5.07;;
19492;SDS011;9887;54.366;10.958;2022-07-19T14:29:13;7.72;;;4.78;;
19492;SDS011;9887;54.366;10.958;2022-07-19T14:31:41;7.40;;;4.80;;
19492;SDS011;9887;54.366;10.958;2022-07-19T14:34:09;8.90;;;4.78;;
19492;SDS011;9887;54.366;10.958;2022-07-19T14:36:58;7.40;;;4.63;;
19492;SDS011;9887;54.366;10.958;2022-07-19T14:39:27;7.10;;;4.25;;
19492;SDS011;9887;54.366;10.958;2022-07-19T14:41:55;6.40;;;4.32;;
19492;SDS011;9887;54.366;10.958;2022-07-19T14:44:25;7.70;;;4.35;;
19492;SDS011;9887;54.366;10.958;2022-07-19T14:46:53;11.20;;;5.00;;
19492;SDS011;9887;54.366;10.958;2022-07-19T14:49:21;7.95;;;4.47;;
19492;SDS011;9887;54.366;10.958;2022-07-19T14:51:50;7.38;;;4.30;;
19492;SDS011;9887;54.366;10.958;2022-07-19T14:54:19;6.65;;;4.38;;
19492;SDS011;9887;54.366;10.958;2022-07-19T14:56:50;6.85;;;4.28;;
19492;SDS011;9887;54.366;10.958;2022-07-19T14:59:19;7.40;;;4.50;;
19492;SDS011;9887;54.366;10.958;2022-07-19T15:01:47;8.48;;;4.35;;
19492;SDS011;9887;54.366;10.958;2022-07-19T15:04:17;9.38;;;4.60;;